Time;durP1;ratioP1;P1;durP2;ratioP2;P2;SDS_P1;SDS_P2;PMS_P1;PMS_P2;Temp;Humidity;BMP_temperature;BMP_pressure;BME280_temperature;BME280_humidity;BME280_pressure;Samples;Min_cycle;Max_cycle;Signal;HPM_P1;HPM_P2
2022/12/28 00:01:13;;;;;;;1.10;1.10;;;2.50;99.90;;;;;;4973897;28;20233;-85
2022/12/28 00:03:39;;;;;;;1.70;1.60;;;2.50;99.90;;;;;;4974743;28;20170;-86
2022/12/28 00:06:06;;;;;;;1.00;1.00;;;2.50;99.90;;;;;;4975179;28;20632;-86
2022/12/28 00:08:32;;;;;;;1.37;1.27;;;;;;;;;;4973562;28;20183;-85
2022/12/28 00:11:02;;;;;;;2.73;1.73;;;2.40;99.90;;;;;;4974333;28;20208;-86
2022/12/28 00:13:32;;;;;;;4.20;2.20;;;2.40;99.90;;;;;;4973695;28;20635;-86
2022/12/28 00:16:04;;;;;;;0.70;0.70;;;2.30;99.90;;;;;;4958098;28;20648;-85
2022/12/28 00:18:33;;;;;;;1.60;1.40;;;2.30;99.90;;;;;;4973598;28;20538;-86
2022/12/28 00:21:00;;;;;;;2.07;1.93;;;2.30;99.90;;;;;;4966633;28;20761;-86
2022/12/28 00:23:26;;;;;;;2.00;0.90;;;2.30;99.90;;;;;;4954045;29;20264;-86
2022/12/28 00:25:52;;;;;;;1.60;1.50;;;2.20;99.90;;;;;;4956022;28;20645;-86
2022/12/28 00:28:18;;;;;;;2.10;1.50;;;2.20;99.90;;;;;;4969150;28;20207;-87
2022/12/28 00:30:43;;;;;;;2.50;1.83;;;2.10;99.90;;;;;;4957598;28;20220;-85
2022/12/28 00:33:09;;;;;;;2.63;1.37;;;;;;;;;;4973905;28;20182;-86
2022/12/28 00:35:35;;;;;;;1.50;1.17;;;2.10;99.90;;;;;;4957245;28;20235;-85
2022/12/28 00:38:01;;;;;;;1.50;1.40;;;2.00;99.90;;;;;;4976211;28;20216;-85
2022/12/28 00:40:26;;;;;;;0.87;0.87;;;2.00;99.90;;;;;;4970938;28;20268;-86
2022/12/28 00:42:52;;;;;;;3.70;2.00;;;2.00;99.90;;;;;;4974896;28;20192;-86
2022/12/28 00:45:18;;;;;;;4.03;1.73;;;2.00;99.90;;;;;;4996025;28;20170;-85
2022/12/28 00:47:43;;;;;;;2.30;1.37;;;2.00;99.90;;;;;;4982859;28;20622;-85
2022/12/28 00:50:09;;;;;;;0.90;0.90;;;2.00;99.90;;;;;;4993948;28;20182;-85
2022/12/28 00:52:35;;;;;;;1.33;1.20;;;2.00;99.90;;;;;;4997953;28;20171;-86
2022/12/28 00:55:01;;;;;;;2.47;1.43;;;2.00;99.90;;;;;;5015799;28;20183;-85
2022/12/28 00:57:26;;;;;;;14.37;1.20;;;1.90;99.90;;;;;;4984907;28;20213;-88
2022/12/28 00:59:52;;;;;;;1.70;1.60;;;1.90;99.90;;;;;;5001344;28;20186;-86
2022/12/28 01:02:18;;;;;;;0.73;0.73;;;1.90;99.90;;;;;;4989812;28;20179;-86
2022/12/28 01:04:43;;;;;;;5.10;2.37;;;1.80;99.90;;;;;;4992295;28;20187;-86
2022/12/28 01:07:09;;;;;;;1.63;1.57;;;1.80;99.90;;;;;;4982836;28;20204;-86
2022/12/28 01:09:34;;;;;;;1.07;1.07;;;1.70;99.90;;;;;;5000811;28;20234;-86
2022/12/28 01:12:00;;;;;;;3.90;1.23;;;1.70;99.90;;;;;;4984860;28;20194;-86
2022/12/28 01:14:26;;;;;;;1.30;1.30;;;1.70;99.90;;;;;;4996312;28;20266;-86
2022/12/28 01:16:51;;;;;;;7.93;2.47;;;1.60;99.90;;;;;;4978949;28;20217;-85
2022/12/28 01:19:19;;;;;;;2.17;1.97;;;1.80;99.90;;;;;;4976893;28;20261;-85
2022/12/28 01:21:50;;;;;;;1.43;1.13;;;1.80;99.90;;;;;;4978680;28;20184;-86
2022/12/28 01:24:16;;;;;;;1.10;1.10;;;1.80;99.90;;;;;;4977109;28;20183;-86
2022/12/28 01:26:42;;;;;;;1.43;1.43;;;1.80;99.90;;;;;;4977569;28;20199;-86
2022/12/28 01:29:08;;;;;;;0.97;0.97;;;1.80;99.90;;;;;;4977657;28;20185;-85
2022/12/28 01:31:34;;;;;;;1.60;1.50;;;1.80;99.90;;;;;;4977849;28;20531;-85
2022/12/28 01:34:00;;;;;;;4.70;2.00;;;1.80;99.90;;;;;;4961068;28;20241;-86
2022/12/28 01:36:30;;;;;;;1.07;1.07;;;1.80;99.90;;;;;;4976656;28;20216;-85
2022/12/28 01:38:58;;;;;;;1.37;1.30;;;1.80;99.90;;;;;;4978509;28;20174;-86
2022/12/28 01:41:25;;;;;;;1.47;1.27;;;1.80;99.90;;;;;;4997073;28;20230;-86
2022/12/28 01:43:51;;;;;;;1.83;1.67;;;1.80;99.90;;;;;;4994619;28;20210;-86
2022/12/28 01:46:27;;;;;;;0.80;0.80;;;1.80;99.90;;;;;;4976128;28;20217;-85
2022/12/28 01:49:01;;;;;;;1.23;1.23;;;1.80;99.90;;;;;;4975375;28;20253;-85
2022/12/28 01:51:32;;;;;;;3.80;2.60;;;1.80;99.90;;;;;;4976342;28;20173;-85
2022/12/28 01:54:00;;;;;;;3.50;2.10;;;1.80;99.90;;;;;;4976785;28;20253;-85
2022/12/28 01:56:27;;;;;;;2.70;1.60;;;1.80;99.90;;;;;;4976079;28;20258;-85
2022/12/28 01:58:54;;;;;;;1.60;1.53;;;1.80;99.90;;;;;;4958841;28;20186;-85
2022/12/28 02:01:20;;;;;;;1.53;1.43;;;1.80;99.90;;;;;;4976400;28;20218;-86
2022/12/28 02:03:46;;;;;;;1.50;1.40;;;;;;;;;;4974929;28;20209;-86
2022/12/28 02:06:12;;;;;;;1.60;1.50;;;1.80;99.90;;;;;;4974925;28;20218;-86
2022/12/28 02:09:00;;;;;;;2.57;1.60;;;1.70;99.90;;;;;;4958789;28;20178;-86
2022/12/28 02:11:26;;;;;;;2.67;1.70;;;1.70;99.90;;;;;;4976317;28;20202;-86
2022/12/28 02:13:53;;;;;;;0.83;0.83;;;1.70;99.90;;;;;;4985437;28;20190;-84
2022/12/28 02:16:19;;;;;;;1.03;1.03;;;1.70;99.90;;;;;;4978806;28;20237;-85
2022/12/28 02:18:46;;;;;;;2.03;1.93;;;1.60;99.90;;;;;;4978185;28;20233;-85
2022/12/28 02:21:38;;;;;;;1.73;1.57;;;1.60;99.90;;;;;;4996324;28;20220;-85
2022/12/28 02:24:13;;;;;;;2.43;1.07;;;1.60;99.90;;;;;;4999948;28;20213;-84
2022/12/28 02:26:55;;;;;;;0.93;0.93;;;1.60;99.90;;;;;;4996359;28;20224;-85
2022/12/28 02:29:52;;;;;;;1.30;1.30;;;1.50;99.90;;;;;;4995349;28;20173;-85
2022/12/28 02:32:55;;;;;;;1.53;1.43;;;1.50;99.90;;;;;;4994148;28;20172;-85
2022/12/28 02:35:28;;;;;;;1.63;1.53;;;1.60;99.90;;;;;;4981966;28;20285;-85
2022/12/28 02:38:00;;;;;;;1.63;1.53;;;1.60;99.90;;;;;;4977507;28;20621;-85
2022/12/28 02:40:34;;;;;;;2.13;1.93;;;1.50;99.90;;;;;;4994689;28;20723;-85
2022/12/28 02:43:01;;;;;;;2.97;1.60;;;1.50;99.90;;;;;;4994943;28;20256;-85
2022/12/28 02:51:38;;;;;;;1.67;1.57;;;1.50;99.90;;;;;;4975737;28;20170;-85
2022/12/28 02:57:45;;;;;;;1.97;1.87;;;1.60;99.90;;;;;;4979256;28;20210;-85
2022/12/28 03:00:17;;;;;;;2.40;2.00;;;1.50;99.90;;;;;;4973920;28;20181;-84
2022/12/28 03:02:57;;;;;;;1.63;1.53;;;1.50;99.90;;;;;;4975134;28;20699;-85
2022/12/28 03:08:13;;;;;;;1.17;1.17;;;1.50;99.90;;;;;;4975249;28;20174;-85
2022/12/28 03:08:18;;;;;;;1.40;1.27;;;1.50;99.90;;;;;;4974840;28;20186;-84
2022/12/28 03:11:09;;;;;;;1.17;1.17;;;1.40;99.90;;;;;;4974884;28;20173;-85
2022/12/28 03:13:42;;;;;;;1.47;1.37;;;1.50;99.90;;;;;;4975185;28;20160;-84
2022/12/28 03:16:15;;;;;;;3.90;0.80;;;1.40;99.90;;;;;;4975189;28;20167;-85
2022/12/28 03:32:49;;;;;;;2.40;2.10;;;1.20;99.90;;;;;;4974659;28;20586;-85
2022/12/28 03:35:16;;;;;;;2.00;1.80;;;1.20;99.90;;;;;;4974460;28;20198;-84
2022/12/28 03:37:54;;;;;;;1.20;1.20;;;1.10;99.90;;;;;;4974688;28;20202;-84
2022/12/28 03:40:27;;;;;;;1.67;1.57;;;1.10;99.90;;;;;;4974504;28;20226;-84
2022/12/28 03:45:53;;;;;;;1.47;1.37;;;1.20;99.90;;;;;;4974631;28;20229;-84
2022/12/28 03:48:20;;;;;;;2.70;1.80;;;1.20;99.90;;;;;;4974808;28;20159;-84
2022/12/28 03:50:48;;;;;;;4.57;1.93;;;1.10;99.90;;;;;;4957344;28;20197;-84
2022/12/28 03:53:21;;;;;;;0.70;0.70;;;1.00;99.90;;;;;;4973534;28;20256;-84
2022/12/28 03:55:47;;;;;;;1.83;1.73;;;1.00;99.90;;;;;;4974635;28;20178;-84
2022/12/28 03:58:13;;;;;;;1.50;1.17;;;1.00;99.90;;;;;;4974632;28;20218;-84
2022/12/28 04:00:39;;;;;;;1.33;1.33;;;1.00;99.90;;;;;;4974218;28;20253;-84
2022/12/28 04:03:04;;;;;;;1.57;1.47;;;1.00;99.90;;;;;;4973085;28;20186;-85
2022/12/28 04:05:30;;;;;;;3.03;1.63;;;1.40;99.90;;;;;;4940898;28;20643;-85
2022/12/28 04:07:56;;;;;;;0.97;0.97;;;0.90;99.90;;;;;;4974646;28;20191;-84
2022/12/28 04:10:21;;;;;;;10.03;2.77;;;0.90;99.90;;;;;;4957053;28;20273;-84
2022/12/28 04:12:47;;;;;;;5.37;1.50;;;0.90;99.90;;;;;;4974506;28;20210;-84
2022/12/28 04:15:13;;;;;;;1.53;1.47;;;0.90;99.90;;;;;;4956985;28;20211;-84
2022/12/28 04:17:38;;;;;;;1.87;1.77;;;0.90;99.90;;;;;;4957047;28;20269;-84
2022/12/28 04:20:05;;;;;;;1.27;1.20;;;0.90;99.90;;;;;;4962590;28;20229;-84
2022/12/28 04:22:30;;;;;;;1.67;1.57;;;0.80;99.90;;;;;;4976181;28;20288;-84
2022/12/28 04:24:56;;;;;;;1.77;1.67;;;0.80;99.90;;;;;;4993379;28;20270;-84
2022/12/28 04:27:22;;;;;;;1.27;1.23;;;0.90;99.90;;;;;;4993593;28;20221;-84
2022/12/28 04:29:49;;;;;;;1.43;1.33;;;0.80;99.90;;;;;;4995090;28;20696;-85
2022/12/28 04:32:14;;;;;;;1.90;1.80;;;0.80;99.90;;;;;;4979649;28;20274;-84
2022/12/28 04:34:40;;;;;;;3.90;1.57;;;0.80;99.90;;;;;;4997165;28;20273;-84
2022/12/28 04:37:06;;;;;;;2.37;2.10;;;0.80;99.90;;;;;;4979650;28;20218;-84
2022/12/28 04:39:31;;;;;;;1.23;1.17;;;0.90;99.90;;;;;;4997165;28;20254;-84
2022/12/28 04:41:57;;;;;;;1.70;1.43;;;0.70;99.90;;;;;;4996861;28;20170;-84
2022/12/28 04:44:23;;;;;;;1.93;1.83;;;0.70;99.90;;;;;;4997201;28;20188;-84
2022/12/28 04:46:48;;;;;;;1.17;1.17;;;0.70;99.90;;;;;;4996961;28;20186;-85
2022/12/28 04:49:14;;;;;;;1.03;1.03;;;0.60;99.90;;;;;;4996731;28;20674;-84
2022/12/28 04:51:40;;;;;;;1.40;1.30;;;0.60;99.90;;;;;;4995713;28;20644;-85
2022/12/28 04:54:05;;;;;;;1.77;1.67;;;0.60;99.90;;;;;;4969136;28;20340;-84
2022/12/28 04:56:31;;;;;;;1.83;1.53;;;0.60;99.90;;;;;;4977598;28;20186;-84
2022/12/28 04:58:59;;;;;;;1.70;1.60;;;0.60;99.90;;;;;;4983582;28;20662;-85
2022/12/28 05:01:25;;;;;;;4.57;4.17;;;0.60;99.90;;;;;;4996713;28;20189;-84
2022/12/28 05:03:53;;;;;;;2.20;2.10;;;0.60;99.90;;;;;;4995611;28;20630;-84
2022/12/28 05:06:20;;;;;;;2.07;1.97;;;0.70;99.90;;;;;;4947299;28;20276;-84
2022/12/28 05:08:47;;;;;;;1.63;1.53;;;0.50;99.90;;;;;;4979356;28;20186;-84
2022/12/28 05:11:19;;;;;;;4.07;1.63;;;0.50;99.90;;;;;;4996560;28;20193;-84
2022/12/28 05:13:45;;;;;;;1.33;1.33;;;0.50;99.90;;;;;;4996449;28;20166;-84
2022/12/28 05:16:14;;;;;;;2.40;2.20;;;0.50;99.90;;;;;;4996159;28;20181;-84
2022/12/28 05:18:40;;;;;;;2.10;2.00;;;0.50;99.90;;;;;;4994702;28;20249;-84
2022/12/28 05:21:08;;;;;;;2.47;1.67;;;0.50;99.90;;;;;;4995861;28;20185;-84
2022/12/28 05:23:36;;;;;;;2.10;1.97;;;0.40;99.90;;;;;;4978738;28;20193;-84
2022/12/28 05:26:03;;;;;;;1.27;1.27;;;0.40;99.90;;;;;;4977984;28;20252;-85
2022/12/28 05:28:29;;;;;;;2.07;1.57;;;0.30;99.90;;;;;;4995692;28;20204;-84
2022/12/28 05:30:59;;;;;;;3.13;2.53;;;0.40;99.90;;;;;;4983910;28;20185;-84
2022/12/28 05:33:25;;;;;;;1.93;1.83;;;0.40;99.90;;;;;;4996320;28;20180;-84
2022/12/28 05:35:51;;;;;;;2.27;2.13;;;0.30;99.90;;;;;;4980387;28;20280;-84
2022/12/28 05:38:16;;;;;;;1.67;1.57;;;0.30;99.90;;;;;;4974753;28;20697;-84
2022/12/28 05:40:42;;;;;;;3.17;2.50;;;0.40;99.90;;;;;;4987598;28;20659;-84
2022/12/28 05:43:08;;;;;;;4.53;3.03;;;0.30;99.90;;;;;;4978643;28;20277;-84
2022/12/28 05:45:34;;;;;;;2.00;1.77;;;0.30;99.90;;;;;;4995921;28;20182;-84
2022/12/28 05:47:59;;;;;;;5.93;2.87;;;0.20;99.90;;;;;;4995775;28;20197;-84
2022/12/28 05:50:25;;;;;;;5.10;2.37;;;0.20;99.90;;;;;;4978281;28;20190;-84
2022/12/28 05:52:51;;;;;;;1.57;1.47;;;0.20;99.90;;;;;;4978470;28;20280;-84
2022/12/28 05:55:17;;;;;;;2.60;2.40;;;;;;;;;;4995405;28;20214;-84
2022/12/28 05:57:42;;;;;;;2.20;1.93;;;0.20;99.90;;;;;;4994555;28;20582;-84
2022/12/28 06:00:08;;;;;;;2.10;1.77;;;0.30;99.90;;;;;;4995552;28;20186;-84
2022/12/28 06:02:34;;;;;;;1.83;1.73;;;0.20;99.90;;;;;;4989682;28;20197;-84
2022/12/28 06:05:00;;;;;;;3.00;2.13;;;0.20;99.90;;;;;;4974756;28;20190;-85
2022/12/28 06:07:25;;;;;;;5.63;2.90;;;0.20;99.90;;;;;;4985966;28;20212;-84
2022/12/28 06:09:51;;;;;;;2.07;1.97;;;0.20;99.90;;;;;;4980419;28;20274;-84
2022/12/28 06:12:16;;;;;;;10.97;1.77;;;0.20;99.90;;;;;;4959010;28;20245;-84
2022/12/28 06:14:42;;;;;;;2.60;1.87;;;0.10;99.90;;;;;;4958862;28;20202;-84
2022/12/28 06:17:08;;;;;;;1.50;1.40;;;0.10;99.90;;;;;;4958694;28;20210;-84
2022/12/28 06:19:33;;;;;;;2.20;1.57;;;0.30;99.90;;;;;;4976167;28;20182;-84
2022/12/28 06:21:59;;;;;;;2.33;2.13;;;0.20;99.90;;;;;;4958811;28;20186;-84
2022/12/28 06:24:25;;;;;;;2.50;2.10;;;0.10;99.90;;;;;;4977239;28;20179;-84
2022/12/28 06:26:50;;;;;;;3.40;3.03;;;0.20;99.90;;;;;;4960072;28;20187;-84
2022/12/28 06:29:16;;;;;;;1.37;1.37;;;0.50;99.90;;;;;;4988298;28;20197;-84
2022/12/28 06:31:46;;;;;;;3.33;3.07;;;0.10;99.90;;;;;;4977802;28;20193;-84
2022/12/28 06:34:12;;;;;;;6.90;1.93;;;0.10;99.90;;;;;;4995015;28;20261;-84
2022/12/28 06:36:40;;;;;;;2.83;2.60;;;0.70;99.90;;;;;;4995055;28;20304;-84
2022/12/28 06:39:08;;;;;;;3.80;3.00;;;0.30;99.90;;;;;;4994892;28;20178;-84
2022/12/28 06:41:35;;;;;;;2.80;2.60;;;0.10;99.90;;;;;;4994752;28;20654;-85
2022/12/28 06:44:01;;;;;;;1.13;1.13;;;0.30;99.90;;;;;;4993953;28;20182;-85
2022/12/28 06:46:28;;;;;;;1.87;1.77;;;0.10;99.90;;;;;;4994720;28;20272;-85
2022/12/28 06:48:54;;;;;;;4.77;2.10;;;0.10;99.90;;;;;;4994642;28;20174;-84
2022/12/28 06:51:23;;;;;;;2.00;1.90;;;0.10;99.90;;;;;;4994647;28;20268;-84
2022/12/28 06:53:50;;;;;;;3.13;2.93;;;0.10;99.90;;;;;;4991695;28;20181;-85
2022/12/28 06:56:26;;;;;;;3.23;2.57;;;0.20;99.90;;;;;;4993900;28;20336;-84
2022/12/28 06:58:53;;;;;;;2.63;2.43;;;0.10;99.90;;;;;;4993987;28;20174;-84
2022/12/28 07:01:23;;;;;;;3.20;2.43;;;0.20;99.90;;;;;;4991951;28;20186;-85
2022/12/28 07:03:50;;;;;;;2.70;2.47;;;0.10;99.90;;;;;;4983601;28;20284;-84
2022/12/28 07:06:18;;;;;;;5.23;2.43;;;0.10;99.90;;;;;;4974071;28;20190;-84
2022/12/28 07:08:44;;;;;;;6.23;3.40;;;0.10;99.90;;;;;;4987786;28;20187;-84
2022/12/28 07:11:12;;;;;;;3.03;2.73;;;0.10;99.90;;;;;;4994654;28;20182;-84
2022/12/28 07:13:38;;;;;;;2.00;1.90;;;0.10;99.90;;;;;;4994679;28;20175;-84
2022/12/28 07:16:25;;;;;;;3.23;3.03;;;0.70;99.90;;;;;;4978339;28;20174;-84
2022/12/28 07:18:51;;;;;;;1.90;1.80;;;;;;;;;;4990176;28;20206;-84
2022/12/28 07:21:25;;;;;;;1.83;1.73;;;0.20;99.90;;;;;;4994324;28;20170;-84
2022/12/28 07:23:52;;;;;;;1.27;1.27;;;1.10;99.90;;;;;;5014803;28;20197;-84
2022/12/28 07:26:20;;;;;;;4.27;3.93;;;0.30;99.90;;;;;;5011220;28;20207;-85
2022/12/28 07:28:48;;;;;;;3.63;3.33;;;0.30;99.90;;;;;;5012279;28;20249;-85
2022/12/28 07:31:20;;;;;;;4.57;2.30;;;0.30;99.90;;;;;;5011143;28;20195;-84
2022/12/28 07:33:48;;;;;;;3.00;2.40;;;0.30;99.90;;;;;;4997881;28;20619;-83
2022/12/28 07:36:16;;;;;;;2.83;2.67;;;0.30;99.90;;;;;;4994742;28;20197;-84
2022/12/28 07:38:42;;;;;;;2.17;2.00;;;;;;;;;;4995090;28;20222;-84
2022/12/28 07:41:14;;;;;;;5.07;2.93;;;0.40;99.90;;;;;;4987777;28;20270;-84
2022/12/28 07:43:40;;;;;;;4.37;2.57;;;0.50;99.90;;;;;;5004291;28;20206;-83
2022/12/28 07:46:12;;;;;;;4.67;3.67;;;0.50;99.90;;;;;;4970505;28;20190;-84
2022/12/28 07:48:39;;;;;;;2.47;2.07;;;0.50;99.90;;;;;;4980862;28;20205;-83
2022/12/28 07:51:21;;;;;;;2.27;2.17;;;0.60;99.90;;;;;;4967226;28;20186;-83
2022/12/28 07:53:48;;;;;;;3.40;3.10;;;0.60;99.90;;;;;;4965932;28;20237;-84
2022/12/28 07:56:18;;;;;;;2.37;2.20;;;0.60;99.90;;;;;;4969670;28;20190;-84
2022/12/28 07:59:03;;;;;;;4.87;3.13;;;0.70;99.90;;;;;;4986615;28;20211;-83
2022/12/28 08:01:31;;;;;;;7.30;5.47;;;0.80;99.90;;;;;;4971670;28;20174;-84
2022/12/28 08:03:59;;;;;;;5.07;3.40;;;0.80;99.90;;;;;;4971852;28;20286;-83
2022/12/28 08:06:26;;;;;;;4.23;2.60;;;0.80;99.90;;;;;;4974641;28;20175;-83
2022/12/28 08:08:55;;;;;;;2.37;2.17;;;0.80;99.90;;;;;;4975227;28;20178;-83
2022/12/28 08:11:23;;;;;;;2.33;2.00;;;0.90;99.90;;;;;;4976427;28;20185;-83
2022/12/28 08:13:52;;;;;;;5.23;2.53;;;0.90;99.90;;;;;;4976699;28;20175;-84
2022/12/28 08:16:19;;;;;;;2.37;2.17;;;1.00;99.90;;;;;;4973366;28;20198;-85
2022/12/28 08:18:46;;;;;;;4.03;3.70;;;1.10;99.90;;;;;;4959557;28;20338;-84
2022/12/28 08:21:15;;;;;;;3.30;2.33;;;1.10;99.90;;;;;;4972110;28;20515;-84
2022/12/28 08:23:41;;;;;;;4.97;2.60;;;1.10;99.90;;;;;;4974964;28;20299;-83
2022/12/28 08:26:25;;;;;;;3.13;2.83;;;1.10;99.90;;;;;;4958114;28;20215;-84
2022/12/28 08:28:54;;;;;;;3.07;2.73;;;1.30;99.90;;;;;;4989585;28;20205;-84
2022/12/28 08:31:22;;;;;;;9.00;3.40;;;2.20;99.90;;;;;;4975877;28;20766;-85
2022/12/28 08:33:49;;;;;;;3.80;2.40;;;1.40;99.90;;;;;;4975287;28;20175;-85
2022/12/28 08:36:15;;;;;;;6.73;3.07;;;1.50;99.90;;;;;;4975938;28;20175;-85
2022/12/28 08:38:42;;;;;;;3.53;3.10;;;1.50;99.90;;;;;;4973639;28;20296;-85
2022/12/28 08:41:11;;;;;;;3.60;2.83;;;1.50;99.90;;;;;;4992559;28;20749;-85
2022/12/28 08:43:36;;;;;;;6.43;2.60;;;1.60;99.90;;;;;;4994034;28;20178;-86
2022/12/28 08:46:10;;;;;;;7.43;3.40;;;1.60;99.90;;;;;;4977672;28;20193;-85
2022/12/28 08:48:35;;;;;;;2.63;2.40;;;1.70;99.90;;;;;;4991730;28;20185;-85
2022/12/28 08:51:07;;;;;;;4.73;3.23;;;1.70;99.90;;;;;;4977570;28;20185;-85
2022/12/28 08:53:33;;;;;;;4.53;3.47;;;1.80;99.90;;;;;;4994978;28;20166;-84
2022/12/28 08:56:13;;;;;;;2.50;2.27;;;1.80;99.90;;;;;;4977807;28;20317;-83
2022/12/28 08:58:40;;;;;;;2.00;1.90;;;1.90;99.90;;;;;;4977197;28;20281;-84
2022/12/28 09:01:16;;;;;;;3.70;3.40;;;1.90;99.90;;;;;;4959583;28;20195;-84
2022/12/28 09:03:44;;;;;;;7.10;3.17;;;2.10;99.90;;;;;;4992658;28;20603;-84
2022/12/28 09:06:16;;;;;;;3.20;2.90;;;2.20;99.90;;;;;;4993716;28;20187;-83
2022/12/28 09:08:42;;;;;;;5.83;2.97;;;2.30;99.90;;;;;;4993212;28;20559;-84
2022/12/28 09:11:11;;;;;;;4.67;2.60;;;2.30;99.90;;;;;;4993403;28;20185;-84
2022/12/28 09:13:37;;;;;;;2.90;2.07;;;2.40;99.90;;;;;;4975966;28;20204;-85
2022/12/28 09:16:08;;;;;;;2.73;2.13;;;2.40;99.90;;;;;;4960670;28;20188;-85
2022/12/28 09:18:35;;;;;;;5.13;3.20;;;2.50;99.90;;;;;;4993066;28;20304;-84
2022/12/28 09:21:15;;;;;;;3.03;2.67;;;2.60;99.90;;;;;;4992923;28;20198;-84
2022/12/28 09:23:42;;;;;;;2.63;2.33;;;2.60;99.90;;;;;;4992286;28;20643;-84
2022/12/28 09:26:30;;;;;;;4.10;2.43;;;2.60;99.90;;;;;;4972665;28;20241;-84
2022/12/28 09:29:01;;;;;;;5.93;3.50;;;2.70;99.90;;;;;;4990898;28;20186;-84
2022/12/28 09:31:31;;;;;;;2.77;2.57;;;2.80;99.90;;;;;;4978275;28;20189;-84
2022/12/28 09:34:03;;;;;;;3.33;2.53;;;2.80;99.90;;;;;;4961534;28;20193;-83
2022/12/28 09:36:34;;;;;;;3.07;2.37;;;2.70;99.90;;;;;;4991402;28;20193;-85
2022/12/28 09:39:23;;;;;;;2.10;1.93;;;3.00;99.90;;;;;;4992774;28;20179;-85
2022/12/28 09:41:51;;;;;;;1.73;1.63;;;3.10;99.90;;;;;;4991950;28;20207;-85
2022/12/28 09:44:47;;;;;;;1.67;1.43;;;3.20;99.90;;;;;;4977834;28;20185;-84
2022/12/28 09:47:25;;;;;;;2.27;1.63;;;3.30;99.90;;;;;;4993556;28;20201;-85
2022/12/28 09:50:17;;;;;;;2.50;2.37;;;3.30;99.90;;;;;;4995298;28;20182;-84
2022/12/28 09:53:20;;;;;;;5.37;2.60;;;3.30;99.90;;;;;;4986800;28;20190;-85
2022/12/28 09:56:16;;;;;;;3.60;3.30;;;3.30;99.90;;;;;;4990828;28;20220;-85
2022/12/28 09:58:43;;;;;;;2.53;1.83;;;3.40;99.90;;;;;;4993317;28;20348;-84
2022/12/28 10:01:13;;;;;;;1.97;1.67;;;3.50;99.90;;;;;;4993799;28;20276;-86
2022/12/28 10:03:42;;;;;;;1.73;1.63;;;3.50;99.90;;;;;;4974978;28;20195;-85
2022/12/28 10:06:25;;;;;;;2.70;2.03;;;3.50;99.90;;;;;;4990468;28;20647;-84
2022/12/28 10:08:57;;;;;;;2.10;1.53;;;3.50;99.90;;;;;;4976831;28;20193;-84
2022/12/28 10:11:38;;;;;;;4.50;2.40;;;3.50;99.90;;;;;;4990546;28;20273;-86
2022/12/28 10:14:17;;;;;;;1.80;1.70;;;3.60;99.90;;;;;;4993723;28;20178;-84
2022/12/28 10:16:43;;;;;;;2.23;2.03;;;3.70;99.90;;;;;;4978014;28;20190;-83
2022/12/28 10:19:19;;;;;;;3.43;3.10;;;3.80;99.90;;;;;;4974892;28;20749;-84
2022/12/28 10:21:47;;;;;;;2.37;2.17;;;3.80;99.90;;;;;;4995019;28;20734;-83
2022/12/28 10:24:13;;;;;;;2.73;1.90;;;3.90;99.90;;;;;;4995253;28;20195;-84
2022/12/28 10:26:44;;;;;;;9.90;2.70;;;3.90;99.90;;;;;;4974001;28;20185;-85
2022/12/28 10:29:18;;;;;;;2.73;2.17;;;3.80;99.90;;;;;;4989850;28;20587;-84
2022/12/28 10:32:05;;;;;;;2.47;2.27;;;3.90;99.90;;;;;;4977576;28;20211;-86
2022/12/28 10:34:33;;;;;;;1.93;1.83;;;3.90;99.90;;;;;;4974750;28;20661;-84
2022/12/28 10:37:16;;;;;;;8.00;2.57;;;3.90;99.90;;;;;;4991888;28;20256;-86
2022/12/28 10:40:05;;;;;;;2.27;1.47;;;4.00;99.90;;;;;;4991020;28;20319;-85
2022/12/28 10:42:42;;;;;;;1.60;1.50;;;4.00;99.90;;;;;;4990174;28;20189;-87
2022/12/28 10:45:33;;;;;;;1.90;1.77;;;4.10;99.90;;;;;;4987250;28;20173;-85
2022/12/28 10:48:00;;;;;;;1.90;1.80;;;4.10;99.90;;;;;;4973100;28;20201;-85
2022/12/28 10:50:49;;;;;;;5.43;1.93;;;4.20;99.90;;;;;;4972588;28;20194;-87
2022/12/28 10:53:29;;;;;;;1.77;1.67;;;4.20;99.90;;;;;;4990590;28;20690;-85
2022/12/28 10:56:13;;;;;;;2.03;1.87;;;4.20;99.90;;;;;;4990185;28;20201;-86
2022/12/28 10:58:43;;;;;;;4.60;2.67;;;4.10;99.90;;;;;;4973374;28;20271;-87
2022/12/28 11:01:12;;;;;;;3.13;2.27;;;4.20;99.90;;;;;;4971019;28;20240;-85
2022/12/28 11:03:43;;;;;;;2.00;1.87;;;4.20;99.90;;;;;;4981796;28;20186;-85
2022/12/28 11:06:18;;;;;;;1.67;1.57;;;4.30;99.90;;;;;;4973384;28;20648;-85
2022/12/28 11:08:57;;;;;;;1.80;1.57;;;4.30;99.90;;;;;;4970379;28;20284;-85
2022/12/28 11:11:27;;;;;;;1.63;1.57;;;4.40;99.90;;;;;;4979852;28;20194;-86
2022/12/28 11:14:12;;;;;;;4.07;2.30;;;4.50;99.90;;;;;;4975594;28;20210;-85
2022/12/28 11:16:39;;;;;;;1.33;1.30;;;4.70;99.90;;;;;;4993646;28;20182;-84
2022/12/28 11:19:05;;;;;;;1.83;1.73;;;4.80;99.90;;;;;;4989570;28;20248;-83
2022/12/28 11:21:32;;;;;;;3.10;1.80;;;5.00;99.90;;;;;;4971798;28;20659;-87
2022/12/28 11:23:58;;;;;;;1.97;1.87;;;5.00;99.90;;;;;;4974935;28;20185;-83
2022/12/28 11:26:27;;;;;;;1.60;1.50;;;5.00;99.90;;;;;;4989268;28;20558;-83
2022/12/28 11:28:53;;;;;;;4.83;2.80;;;5.00;99.90;;;;;;4974339;28;20186;-85
2022/12/28 11:31:30;;;;;;;1.60;1.50;;;5.00;99.90;;;;;;4992164;28;20182;-85
2022/12/28 11:34:02;;;;;;;2.07;1.87;;;4.90;99.90;;;;;;4974320;28;20177;-85
2022/12/28 11:36:30;;;;;;;1.53;1.43;;;4.70;99.90;;;;;;4992041;28;20205;-84
2022/12/28 11:38:56;;;;;;;2.83;1.77;;;4.50;99.90;;;;;;4987580;28;20639;-85
2022/12/28 11:41:22;;;;;;;1.73;1.27;;;4.50;99.90;;;;;;4968873;28;20233;-85
2022/12/28 11:43:49;;;;;;;2.27;1.53;;;4.40;99.90;;;;;;4986714;28;20227;-87
2022/12/28 11:46:21;;;;;;;2.03;1.67;;;4.40;99.90;;;;;;4992327;28;20178;-86
2022/12/28 11:49:22;;;;;;;1.97;1.87;;;4.30;99.90;;;;;;4974625;28;20190;-86
2022/12/28 11:52:13;;;;;;;1.20;1.10;;;4.20;99.90;;;;;;4991270;28;20244;-84
2022/12/28 11:54:51;;;;;;;2.40;2.20;;;4.20;99.90;;;;;;4983733;28;20189;-84
2022/12/28 11:57:36;;;;;;;1.80;1.30;;;4.20;99.90;;;;;;4986767;28;20616;-85
2022/12/28 12:00:25;;;;;;;1.83;1.73;;;4.20;99.90;;;;;;4973098;28;20181;-84
2022/12/28 12:03:00;;;;;;;2.00;1.83;;;4.10;99.90;;;;;;4954240;28;20197;-85
2022/12/28 12:05:38;;;;;;;1.73;1.50;;;4.10;99.90;;;;;;4988640;28;20193;-86
2022/12/28 12:08:16;;;;;;;2.07;1.90;;;4.00;99.90;;;;;;4990321;28;20196;-85
2022/12/28 12:10:43;;;;;;;3.23;1.53;;;4.00;99.90;;;;;;4971045;28;20244;-84
2022/12/28 12:13:24;;;;;;;1.70;1.60;;;4.00;99.90;;;;;;4986739;28;20202;-84
2022/12/28 12:16:02;;;;;;;1.37;1.30;;;4.10;99.90;;;;;;4973181;28;20224;-84
2022/12/28 12:18:32;;;;;;;4.93;1.93;;;4.00;99.90;;;;;;4988775;28;20209;-83
2022/12/28 12:21:02;;;;;;;3.30;1.50;;;3.90;99.90;;;;;;4991415;28;20186;-84
2022/12/28 12:23:47;;;;;;;4.10;3.20;;;3.90;99.90;;;;;;4973636;28;20599;-84
2022/12/28 12:26:26;;;;;;;3.30;2.60;;;3.90;99.90;;;;;;4990010;28;20305;-85
2022/12/28 12:28:57;;;;;;;4.30;2.13;;;3.90;99.90;;;;;;4988000;28;20189;-84
2022/12/28 12:31:36;;;;;;;4.87;2.83;;;3.90;99.90;;;;;;4992271;28;20643;-84
2022/12/28 12:34:27;;;;;;;1.67;1.40;;;3.90;99.90;;;;;;4975009;28;20631;-85
2022/12/28 12:37:11;;;;;;;8.17;3.03;;;3.90;99.90;;;;;;4973676;28;20221;-83
2022/12/28 12:39:48;;;;;;;5.20;3.00;;;3.90;99.90;;;;;;4981962;28;20289;-86
2022/12/28 12:42:49;;;;;;;8.20;3.47;;;3.90;99.90;;;;;;4990673;28;20768;-85
2022/12/28 12:45:27;;;;;;;3.30;2.83;;;4.00;99.90;;;;;;4992771;28;20193;-85
2022/12/28 12:48:09;;;;;;;8.20;3.07;;;4.00;99.90;;;;;;4986401;28;20194;-85
2022/12/28 12:50:54;;;;;;;3.17;2.33;;;4.00;99.90;;;;;;4993757;28;20673;-84
2022/12/28 12:53:38;;;;;;;1.90;1.70;;;4.10;99.90;;;;;;4993191;28;20180;-84
2022/12/28 12:56:29;;;;;;;2.97;2.67;;;4.10;99.90;;;;;;4971719;28;20198;-84
2022/12/28 12:59:33;;;;;;;1.20;1.10;;;4.20;99.90;;;;;;4992384;28;20617;-84
2022/12/28 13:02:30;;;;;;;1.87;1.60;;;4.10;99.90;;;;;;4992498;28;20208;-84
2022/12/28 13:05:00;;;;;;;1.53;1.43;;;4.10;99.90;;;;;;4994405;28;20212;-84
2022/12/28 13:07:27;;;;;;;7.97;2.67;;;4.10;99.90;;;;;;4996368;28;20195;-84
2022/12/28 13:09:56;;;;;;;3.33;2.43;;;4.10;99.90;;;;;;4995409;28;20553;-84
2022/12/28 13:12:23;;;;;;;1.97;1.87;;;4.20;99.90;;;;;;4995365;28;20186;-84
2022/12/28 13:15:15;;;;;;;6.73;2.30;;;4.20;99.90;;;;;;4977922;28;20280;-83
2022/12/28 13:18:05;;;;;;;2.17;1.97;;;4.20;99.90;;;;;;4979639;28;20205;-84
2022/12/28 13:20:31;;;;;;;5.10;2.53;;;4.20;99.90;;;;;;4996324;28;20186;-84
2022/12/28 13:22:57;;;;;;;4.47;1.83;;;4.20;99.90;;;;;;4997342;28;20217;-84
2022/12/28 13:25:33;;;;;;;1.53;1.43;;;4.20;99.90;;;;;;4980513;28;20177;-84
2022/12/28 13:28:03;;;;;;;1.67;1.57;;;4.20;99.90;;;;;;4974435;28;20181;-84
2022/12/28 13:30:29;;;;;;;2.20;1.83;;;4.20;99.90;;;;;;4962218;28;20175;-84
2022/12/28 13:33:01;;;;;;;1.70;1.60;;;4.20;99.90;;;;;;4980973;28;20179;-83
2022/12/28 13:35:31;;;;;;;6.10;2.03;;;4.30;99.90;;;;;;4981033;28;20178;-85
2022/12/28 13:38:14;;;;;;;1.40;1.30;;;4.20;99.90;;;;;;4996567;28;20219;-86
2022/12/28 13:40:49;;;;;;;1.47;1.33;;;4.20;99.90;;;;;;5019762;28;20329;-85
2022/12/28 13:43:24;;;;;;;0.90;0.90;;;4.20;99.90;;;;;;5003385;28;20261;-86
2022/12/28 13:45:54;;;;;;;1.90;1.17;;;4.20;99.90;;;;;;5019003;28;20185;-87